Time,TemperatureF,DewpointF,PressureIn,WindDirection,WindDirectionDegrees,WindSpeedMPH,WindSpeedGustMPH,Humidity,HourlyPrecipIn,Conditions,Clouds,dailyrainin,SolarRadiationWatts/m^2,SoftwareType,DateUTC
2013-10-23 00:02:00,51.2,39.8,30.03,WSW,240,1.0,2.0,65,0.00,,---,0.00,0.00,VWS V14.01,2013-10-23 05:02:00,
2013-10-23 00:07:00,51.2,39.5,30.04,WSW,240,0.0,1.0,64,0.00,,---,0.00,0.00,VWS V14.01,2013-10-23 05:07:00,
2013-10-23 00:12:00,51.2,39.5,30.04,WSW,240,0.0,0.0,64,0.00,,---,0.00,0.00,VWS V14.01,2013-10-23 05:12:00,
2013-10-23 00:17:00,51.0,39.3,30.04,WSW,240,0.0,0.0,64,0.00,,---,0.00,0.00,VWS V14.01,2013-10-23 05:17:00,
2013-10-23 00:22:00,50.8,39.1,30.03,WSW,240,0.0,0.0,64,0.00,,---,0.00,0.00,VWS V14.01,2013-10-23 05:22:00,
2013-10-23 00:27:00,50.5,39.2,30.03,WSW,240,0.0,0.0,65,0.00,,---,0.00,0.00,VWS V14.01,2013-10-23 05:27:00,
2013-10-23 00:32:00,50.2,39.3,30.04,South,186,2.0,3.0,66,0.00,,---,0.00,0.00,VWS V14.01,2013-10-23 05:32:00,
2013-10-23 00:37:00,49.5,39.4,30.03,South,182,3.0,3.0,68,0.00,,---,0.00,0.00,VWS V14.01,2013-10-23 05:37:00,
2013-10-23 00:42:00,49.2,39.5,30.04,South,184,2.0,4.0,69,0.00,,---,0.00,0.00,VWS V14.01,2013-10-23 05:42:00,
2013-10-23 00:47:00,49.4,39.3,30.04,South,181,2.0,3.0,68,0.00,,---,0.00,0.00,VWS V14.01,2013-10-23 05:47:00,
2013-10-23 00:51:00,49.8,39.7,30.03,South,182,2.0,2.0,68,0.00,,---,0.00,0.00,VWS V14.01,2013-10-23 05:51:00,
2013-10-23 00:57:00,50.3,39.8,30.03,South,182,1.0,2.0,67,0.00,,---,0.00,0.00,VWS V14.01,2013-10-23 05:57:00,
2013-10-23 01:02:00,50.6,39.7,30.03,South,182,1.0,2.0,66,0.00,,---,0.00,0.00,VWS V14.01,2013-10-23 06:02:00,
2013-10-23 01:07:00,50.6,39.7,30.03,South,182,1.0,2.0,66,0.00,,---,0.00,0.00,VWS V14.01,2013-10-23 06:07:00,
2013-10-23 01:12:00,50.6,39.7,30.03,South,182,2.0,3.0,66,0.00,,---,0.00,0.00,VWS V14.01,2013-10-23 06:12:00,
2013-10-23 01:17:00,50.6,39.7,30.03,SSW,196,1.0,2.0,66,0.00,,---,0.00,0.00,VWS V14.01,2013-10-23 06:17:00,
2013-10-23 01:22:00,50.6,39.7,30.03,SSW,196,1.0,2.0,66,0.00,,---,0.00,0.00,VWS V14.01,2013-10-23 06:22:00,
2013-10-23 01:27:00,50.5,39.6,30.03,SSW,196,2.0,3.0,66,0.00,,---,0.00,0.00,VWS V14.01,2013-10-23 06:27:00,
2013-10-23 01:32:00,50.3,39.4,30.04,SW,232,5.0,6.0,66,0.00,,---,0.00,0.00,VWS V14.01,2013-10-23 06:32:00,
2013-10-23 01:37:00,50.4,39.9,30.03,South,190,2.0,2.0,67,0.00,,---,0.00,0.00,VWS V14.01,2013-10-23 06:37:00,
2013-10-23 01:42:00,50.4,39.9,30.03,SSW,195,1.0,2.0,67,0.00,,---,0.00,0.00,VWS V14.01,2013-10-23 06:42:00,
2013-10-23 01:47:00,50.5,40.0,30.04,SSW,196,1.0,3.0,67,0.00,,---,0.00,0.00,VWS V14.01,2013-10-23 06:47:00,
2013-10-23 01:52:00,50.6,40.1,30.04,South,173,1.0,2.0,67,0.00,,---,0.00,0.00,VWS V14.01,2013-10-23 06:52:00,
2013-10-23 01:57:00,50.6,39.7,30.04,South,176,0.0,1.0,66,0.00,,---,0.00,0.00,VWS V14.01,2013-10-23 06:57:00,
2013-10-23 02:02:00,50.6,39.7,30.04,South,176,1.0,2.0,66,0.00,,---,0.00,0.00,VWS V14.01,2013-10-23 07:02:00,
2013-10-23 02:07:00,50.4,39.5,30.04,South,176,1.0,2.0,66,0.00,,---,0.00,0.00,VWS V14.01,2013-10-23 07:07:00,
2013-10-23 02:12:00,50.2,39.3,30.04,South,176,0.0,1.0,66,0.00,,---,0.00,0.00,VWS V14.01,2013-10-23 07:12:00,
2013-10-23 02:17:00,49.9,39.4,30.04,South,176,0.0,0.0,67,0.00,,---,0.00,0.00,VWS V14.01,2013-10-23 07:17:00,
2013-10-23 02:22:00,49.7,39.2,30.04,South,176,1.0,1.0,67,0.00,,---,0.00,0.00,VWS V14.01,2013-10-23 07:22:00,
2013-10-23 02:27:00,49.5,39.0,30.04,South,176,1.0,1.0,67,0.00,,---,0.00,0.00,VWS V14.01,2013-10-23 07:27:00,
2013-10-23 02:32:00,49.2,38.7,30.03,South,176,1.0,1.0,67,0.00,,---,0.00,0.00,VWS V14.01,2013-10-23 07:32:00,
2013-10-23 02:37:00,49.0,38.5,30.04,South,176,1.0,2.0,67,0.00,,---,0.00,0.00,VWS V14.01,2013-10-23 07:37:00,
2013-10-23 02:42:00,48.8,38.7,30.04,South,176,1.0,1.0,68,0.00,,---,0.00,0.00,VWS V14.01,2013-10-23 07:42:00,
2013-10-23 02:47:00,48.5,39.2,30.04,South,176,0.0,0.0,70,0.00,,---,0.00,0.00,VWS V14.01,2013-10-23 07:47:00,
2013-10-23 02:52:00,48.2,38.5,30.04,South,176,0.0,0.0,69,0.00,,---,0.00,0.00,VWS V14.01,2013-10-23 07:52:00,
2013-10-23 02:57:00,47.8,38.5,30.04,South,176,0.0,0.0,70,0.00,,---,0.00,0.00,VWS V14.01,2013-10-23 07:57:00,
2013-10-23 03:02:00,47.1,38.2,30.04,South,176,1.0,1.0,71,0.00,,---,0.00,0.00,VWS V14.01,2013-10-23 08:02:00,
2013-10-23 03:07:00,46.9,38.4,30.04,South,176,0.0,0.0,72,0.00,,---,0.00,0.00,VWS V14.01,2013-10-23 08:07:00,
2013-10-23 03:12:00,46.7,37.8,30.04,South,176,0.0,0.0,71,0.00,,---,0.00,0.00,VWS V14.01,2013-10-23 08:12:00,
2013-10-23 03:17:00,46.4,37.9,30.04,South,176,1.0,1.0,72,0.00,,---,0.00,0.00,VWS V14.01,2013-10-23 08:17:00,
2013-10-23 03:22:00,46.1,37.9,30.04,South,176,1.0,2.0,73,0.00,,---,0.00,0.00,VWS V14.01,2013-10-23 08:22:00,
2013-10-23 03:27:00,45.9,38.1,30.04,South,176,1.0,1.0,74,0.00,,---,0.00,0.00,VWS V14.01,2013-10-23 08:27:00,
2013-10-23 03:32:00,45.8,38.0,30.04,South,176,1.0,1.0,74,0.00,,---,0.00,0.00,VWS V14.01,2013-10-23 08:32:00,
2013-10-23 03:37:00,45.6,37.8,30.04,South,176,0.0,1.0,74,0.00,,---,0.00,0.00,VWS V14.01,2013-10-23 08:37:00,
2013-10-23 03:42:00,45.4,38.0,30.04,South,176,1.0,1.0,75,0.00,,---,0.00,0.00,VWS V14.01,2013-10-23 08:42:00,
2013-10-23 03:47:00,45.3,37.9,30.04,South,176,0.0,1.0,75,0.00,,---,0.00,0.00,VWS V14.01,2013-10-23 08:47:00,
2013-10-23 03:52:00,45.2,37.8,30.03,South,176,0.0,0.0,75,0.00,,---,0.00,0.00,VWS V14.01,2013-10-23 08:52:00,
2013-10-23 03:57:00,45.1,38.0,30.03,South,176,0.0,0.0,76,0.00,,---,0.00,0.00,VWS V14.01,2013-10-23 08:57:00,
2013-10-23 04:02:00,45.0,37.9,30.03,South,176,1.0,1.0,76,0.00,,---,0.00,0.00,VWS V14.01,2013-10-23 09:02:00,
2013-10-23 04:07:00,44.8,37.7,30.03,SSE,161,1.0,1.0,76,0.00,,---,0.00,0.00,VWS V14.01,2013-10-23 09:07:00,
2013-10-23 04:12:00,44.7,37.6,30.03,NE,51,3.0,3.0,76,0.00,,---,0.00,0.00,VWS V14.01,2013-10-23 09:12:00,
2013-10-23 04:17:00,44.8,37.7,30.03,NNE,26,2.0,3.0,76,0.00,,---,0.00,0.00,VWS V14.01,2013-10-23 09:17:00,
2013-10-23 04:22:00,44.9,37.8,30.03,NNE,26,1.0,2.0,76,0.00,,---,0.00,0.00,VWS V14.01,2013-10-23 09:22:00,
2013-10-23 04:27:00,44.9,37.8,30.03,NNE,26,0.0,1.0,76,0.00,,---,0.00,0.00,VWS V14.01,2013-10-23 09:27:00,
2013-10-23 04:31:00,44.8,37.7,30.03,NNE,26,2.0,2.0,76,0.00,,---,0.00,0.00,VWS V14.01,2013-10-23 09:31:00,
2013-10-23 04:36:00,44.7,37.6,30.03,NNE,26,3.0,3.0,76,0.00,,---,0.00,0.00,VWS V14.01,2013-10-23 09:36:00,
2013-10-23 04:41:00,44.7,37.6,30.03,NNE,26,2.0,3.0,76,0.00,,---,0.00,0.00,VWS V14.01,2013-10-23 09:41:00,
2013-10-23 04:46:00,44.6,37.5,30.03,NNE,26,1.0,2.0,76,0.00,,---,0.00,0.00,VWS V14.01,2013-10-23 09:46:00,
2013-10-23 04:51:00,44.5,37.4,30.02,NNE,26,1.0,1.0,76,0.00,,---,0.00,0.00,VWS V14.01,2013-10-23 09:51:00,
2013-10-23 04:56:00,44.3,37.2,30.03,NNE,26,1.0,2.0,76,0.00,,---,0.00,0.00,VWS V14.01,2013-10-23 09:56:00,
2013-10-23 05:01:00,44.3,37.2,30.02,NNE,26,1.0,1.0,76,0.00,,---,0.00,0.00,VWS V14.01,2013-10-23 10:01:00,
2013-10-23 05:06:00,44.2,37.1,30.02,NNE,26,0.0,1.0,76,0.00,,---,0.00,0.00,VWS V14.01,2013-10-23 10:06:00,
2013-10-23 05:11:00,44.1,37.0,30.02,NNE,26,0.0,0.0,76,0.00,,---,0.00,0.00,VWS V14.01,2013-10-23 10:11:00,
2013-10-23 05:16:00,44.0,36.9,30.03,NNE,26,0.0,0.0,76,0.00,,---,0.00,0.00,VWS V14.01,2013-10-23 10:16:00,
2013-10-23 05:21:00,43.9,36.8,30.03,NNE,26,0.0,0.0,76,0.00,,---,0.00,0.00,VWS V14.01,2013-10-23 10:21:00,
2013-10-23 05:26:00,43.7,36.6,30.03,NNE,26,0.0,0.0,76,0.00,,---,0.00,0.00,VWS V14.01,2013-10-23 10:26:00,
2013-10-23 05:31:00,43.5,36.5,30.03,NNE,26,0.0,0.0,76,0.00,,---,0.00,0.00,VWS V14.01,2013-10-23 10:31:00,
2013-10-23 05:36:00,43.3,36.3,30.03,NNE,26,0.0,0.0,76,0.00,,---,0.00,0.00,VWS V14.01,2013-10-23 10:36:00,
2013-10-23 05:41:00,43.2,36.5,30.03,NNE,26,1.0,2.0,77,0.00,,---,0.00,0.00,VWS V14.01,2013-10-23 10:41:00,
2013-10-23 05:46:00,42.9,36.2,30.03,East,98,1.0,1.0,77,0.00,,---,0.00,0.00,VWS V14.01,2013-10-23 10:46:00,
2013-10-23 05:51:00,42.7,36.0,30.03,SSW,192,0.0,1.0,77,0.00,,---,0.00,0.00,VWS V14.01,2013-10-23 10:51:00,
2013-10-23 05:56:00,42.7,36.3,30.03,SSW,192,0.0,1.0,78,0.00,,---,0.00,0.00,VWS V14.01,2013-10-23 10:56:00,
2013-10-23 06:01:00,42.7,36.3,30.03,SSW,192,0.0,1.0,78,0.00,,---,0.00,0.00,VWS V14.01,2013-10-23 11:01:00,
2013-10-23 06:06:00,42.5,36.1,30.03,SSW,192,0.0,0.0,78,0.00,,---,0.00,0.00,VWS V14.01,2013-10-23 11:06:00,
2013-10-23 06:11:00,42.4,36.4,30.03,SSW,192,0.0,1.0,79,0.00,,---,0.00,0.00,VWS V14.01,2013-10-23 11:11:00,
2013-10-23 06:16:00,42.3,36.3,30.03,SSW,192,0.0,0.0,79,0.00,,---,0.00,0.00,VWS V14.01,2013-10-23 11:16:00,
2013-10-23 06:21:00,42.2,36.2,30.03,SSW,192,0.0,0.0,79,0.00,,---,0.00,0.00,VWS V14.01,2013-10-23 11:21:00,
2013-10-23 06:26:00,42.0,36.0,30.03,SSW,192,0.0,0.0,79,0.00,,---,0.00,0.00,VWS V14.01,2013-10-23 11:26:00,
2013-10-23 06:31:00,41.9,35.9,30.03,SSW,192,0.0,0.0,79,0.00,,---,0.00,0.00,VWS V14.01,2013-10-23 11:31:00,
2013-10-23 06:36:00,41.7,35.7,30.03,SSW,192,0.0,0.0,79,0.00,,---,0.00,0.00,VWS V14.01,2013-10-23 11:36:00,
2013-10-23 06:41:00,41.6,35.6,30.04,SSW,192,0.0,0.0,79,0.00,,---,0.00,0.00,VWS V14.01,2013-10-23 11:41:00,
2013-10-23 06:46:00,41.4,35.7,30.04,SSW,192,0.0,0.0,80,0.00,,---,0.00,0.00,VWS V14.01,2013-10-23 11:46:00,
2013-10-23 06:51:00,41.3,35.6,30.04,SSW,192,0.0,0.0,80,0.00,,---,0.00,0.00,VWS V14.01,2013-10-23 11:51:00,
2013-10-23 06:56:00,41.1,35.4,30.04,SSW,192,0.0,0.0,80,0.00,,---,0.00,0.00,VWS V14.01,2013-10-23 11:56:00,
2013-10-23 07:01:00,41.0,36.8,30.04,SSW,192,0.0,0.0,85,0.00,,---,0.00,0.00,VWS V14.01,2013-10-23 12:01:00,
2013-10-23 07:06:00,40.8,35.1,30.04,SSW,192,0.0,1.0,80,0.00,,---,0.00,0.00,VWS V14.01,2013-10-23 12:06:00,
2013-10-23 07:11:00,40.6,35.2,30.04,SSW,192,0.0,0.0,81,0.00,,---,0.00,0.00,VWS V14.01,2013-10-23 12:11:00,
2013-10-23 07:16:00,40.5,35.1,30.04,SSW,192,0.0,0.0,81,0.00,,---,0.00,0.00,VWS V14.01,2013-10-23 12:16:00,
2013-10-23 07:21:00,40.4,35.0,30.04,SSW,192,0.0,0.0,81,0.00,,---,0.00,0.00,VWS V14.01,2013-10-23 12:21:00,
2013-10-23 07:26:00,40.2,35.2,30.04,South,179,1.0,2.0,82,0.00,,---,0.00,0.00,VWS V14.01,2013-10-23 12:26:00,
2013-10-23 07:31:00,40.1,35.1,30.04,South,179,0.0,1.0,82,0.00,,---,0.00,0.00,VWS V14.01,2013-10-23 12:31:00,
2013-10-23 07:36:00,39.9,34.9,30.04,South,179,0.0,1.0,82,0.00,,---,0.00,0.00,VWS V14.01,2013-10-23 12:36:00,
2013-10-23 07:41:00,39.8,34.8,30.04,South,179,1.0,1.0,82,0.00,,---,0.00,0.00,VWS V14.01,2013-10-23 12:41:00,
2013-10-23 07:46:00,39.8,34.8,30.05,South,179,0.0,1.0,82,0.00,,---,0.00,0.00,VWS V14.01,2013-10-23 12:46:00,
2013-10-23 07:51:00,39.8,35.1,30.05,South,179,0.0,0.0,83,0.00,,---,0.00,5.00,VWS V14.01,2013-10-23 12:51:00,
2013-10-23 07:56:00,39.8,35.1,30.05,South,179,0.0,0.0,83,0.00,,---,0.00,9.00,VWS V14.01,2013-10-23 12:56:00,
2013-10-23 08:01:00,39.7,35.0,30.05,South,179,0.0,0.0,83,0.00,,---,0.00,11.00,VWS V14.01,2013-10-23 13:01:00,
2013-10-23 08:06:00,39.7,35.0,30.05,South,179,0.0,0.0,83,0.00,,---,0.00,14.00,VWS V14.01,2013-10-23 13:06:00,
2013-10-23 08:11:00,39.7,35.0,30.05,South,179,0.0,0.0,83,0.00,,---,0.00,18.00,VWS V14.01,2013-10-23 13:11:00,
2013-10-23 08:16:00,39.8,35.4,30.05,South,179,0.0,0.0,84,0.00,,---,0.00,28.00,VWS V14.01,2013-10-23 13:16:00,
2013-10-23 08:21:00,39.9,35.5,30.06,South,179,0.0,0.0,84,0.00,,---,0.00,39.00,VWS V14.01,2013-10-23 13:21:00,
2013-10-23 08:26:00,40.1,35.7,30.05,South,179,2.0,2.0,84,0.00,,---,0.00,53.00,VWS V14.01,2013-10-23 13:26:00,
2013-10-23 08:31:00,40.5,36.3,30.06,South,179,1.0,2.0,85,0.00,,---,0.00,65.00,VWS V14.01,2013-10-23 13:31:00,
2013-10-23 08:36:00,41.0,36.8,30.06,South,188,0.0,0.0,85,0.00,,---,0.00,81.00,VWS V14.01,2013-10-23 13:36:00,
2013-10-23 08:41:00,41.4,37.2,30.06,South,188,0.0,0.0,85,0.00,,---,0.00,97.00,VWS V14.01,2013-10-23 13:41:00,
2013-10-23 08:46:00,41.9,37.7,30.06,South,188,0.0,0.0,85,0.00,,---,0.00,114.00,VWS V14.01,2013-10-23 13:46:00,
2013-10-23 08:51:00,42.5,38.3,30.06,South,188,0.0,0.0,85,0.00,,---,0.00,130.00,VWS V14.01,2013-10-23 13:51:00,
2013-10-23 08:56:00,43.1,38.9,30.05,South,188,1.0,1.0,85,0.00,,---,0.00,149.00,VWS V14.01,2013-10-23 13:56:00,
2013-10-23 09:01:00,43.8,39.6,30.05,South,188,0.0,0.0,85,0.00,,---,0.00,171.00,VWS V14.01,2013-10-23 14:01:00,
2013-10-23 09:06:00,44.7,40.5,30.05,South,188,0.0,0.0,85,0.00,,---,0.00,192.00,VWS V14.01,2013-10-23 14:06:00,
2013-10-23 09:11:00,45.6,41.4,30.05,South,188,1.0,2.0,85,0.00,,---,0.00,213.00,VWS V14.01,2013-10-23 14:11:00,
2013-10-23 09:16:00,46.7,42.1,30.05,South,188,1.0,2.0,84,0.00,,---,0.00,234.00,VWS V14.01,2013-10-23 14:16:00,
2013-10-23 09:21:00,48.0,43.1,30.05,South,188,0.0,0.0,83,0.00,,---,0.00,251.00,VWS V14.01,2013-10-23 14:21:00,
2013-10-23 09:26:00,49.3,43.7,30.05,SSE,168,1.0,1.0,81,0.00,,---,0.00,265.00,VWS V14.01,2013-10-23 14:26:00,
2013-10-23 09:31:00,50.5,43.9,30.06,South,178,2.0,2.0,78,0.00,,---,0.00,283.00,VWS V14.01,2013-10-23 14:31:00,
2013-10-23 09:36:00,51.7,44.0,30.06,South,181,1.0,2.0,75,0.00,,---,0.00,299.00,VWS V14.01,2013-10-23 14:36:00,
2013-10-23 09:41:00,53.3,44.2,30.06,South,182,2.0,2.0,71,0.00,,---,0.00,316.00,VWS V14.01,2013-10-23 14:41:00,
2013-10-23 09:46:00,54.7,44.4,30.06,SSW,205,4.0,4.0,68,0.00,,---,0.00,332.00,VWS V14.01,2013-10-23 14:46:00,
2013-10-23 09:51:00,55.8,43.8,30.06,SW,225,3.0,4.0,64,0.00,,---,0.00,348.00,VWS V14.01,2013-10-23 14:51:00,
2013-10-23 09:56:00,56.9,43.6,30.06,SW,229,2.0,4.0,61,0.00,,---,0.00,362.00,VWS V14.01,2013-10-23 14:56:00,
2013-10-23 10:01:00,57.9,43.2,30.06,SSW,200,4.0,4.0,58,0.00,,---,0.00,376.00,VWS V14.01,2013-10-23 15:01:00,
2013-10-23 10:06:00,59.2,43.1,30.06,SW,219,4.0,4.0,55,0.00,,---,0.00,392.00,VWS V14.01,2013-10-23 15:06:00,
2013-10-23 10:11:00,60.3,42.6,30.05,South,188,4.0,5.0,52,0.00,,---,0.00,408.00,VWS V14.01,2013-10-23 15:11:00,
2013-10-23 10:16:00,61.2,43.0,30.05,SSW,210,5.0,5.0,51,0.00,,---,0.00,424.00,VWS V14.01,2013-10-23 15:16:00,
2013-10-23 10:21:00,61.9,42.0,30.05,WSW,242,4.0,5.0,48,0.00,,---,0.00,438.00,VWS V14.01,2013-10-23 15:21:00,
2013-10-23 10:26:00,62.8,41.7,30.05,SW,219,7.0,7.0,46,0.00,,---,0.00,454.00,VWS V14.01,2013-10-23 15:26:00,
2013-10-23 10:31:00,63.9,41.0,30.05,WSW,240,5.0,7.0,43,0.00,,---,0.00,466.00,VWS V14.01,2013-10-23 15:31:00,
2013-10-23 10:36:00,64.7,41.1,30.04,SW,234,6.0,6.0,42,0.00,,---,0.00,478.00,VWS V14.01,2013-10-23 15:36:00,
2013-10-23 10:41:00,65.6,40.0,30.04,WSW,252,10.0,11.0,39,0.00,,---,0.00,492.00,VWS V14.01,2013-10-23 15:41:00,
2013-10-23 10:46:00,66.4,40.0,30.04,SW,218,6.0,8.0,38,0.00,,---,0.00,506.00,VWS V14.01,2013-10-23 15:46:00,
2013-10-23 10:51:00,67.0,39.2,30.04,WSW,257,5.0,6.0,36,0.00,,---,0.00,519.00,VWS V14.01,2013-10-23 15:51:00,
2013-10-23 10:56:00,67.6,39.7,30.04,SW,233,7.0,7.0,36,0.00,,---,0.00,533.00,VWS V14.01,2013-10-23 15:56:00,
2013-10-23 11:01:00,68.3,40.3,30.04,SW,230,6.0,9.0,36,0.00,,---,0.00,541.00,VWS V14.01,2013-10-23 16:01:00,
2013-10-23 11:06:00,69.1,39.6,30.04,WSW,244,11.0,12.0,34,0.00,,---,0.00,555.00,VWS V14.01,2013-10-23 16:06:00,
2013-10-23 11:11:00,69.9,39.5,30.04,WSW,245,6.0,6.0,33,0.00,,---,0.00,566.00,VWS V14.01,2013-10-23 16:11:00,
2013-10-23 11:16:00,70.5,40.0,30.04,West,273,12.0,13.0,33,0.00,,---,0.00,578.00,VWS V14.01,2013-10-23 16:16:00,
2013-10-23 11:21:00,71.1,39.8,30.04,WSW,248,6.0,7.0,32,0.00,,---,0.00,589.00,VWS V14.01,2013-10-23 16:21:00,
2013-10-23 11:26:00,71.8,39.6,30.04,West,269,10.0,13.0,31,0.00,,---,0.00,599.00,VWS V14.01,2013-10-23 16:26:00,
2013-10-23 11:31:00,72.6,40.3,30.04,West,259,10.0,10.0,31,0.00,,---,0.00,610.00,VWS V14.01,2013-10-23 16:31:00,
2013-10-23 11:36:00,73.3,40.0,30.03,West,270,11.0,12.0,30,0.00,,---,0.00,621.00,VWS V14.01,2013-10-23 16:36:00,
2013-10-23 11:41:00,73.7,40.4,30.03,West,274,10.0,14.0,30,0.00,,---,0.00,631.00,VWS V14.01,2013-10-23 16:41:00,
2013-10-23 11:46:00,73.8,40.5,30.03,WSW,253,10.0,10.0,30,0.00,,---,0.00,642.00,VWS V14.01,2013-10-23 16:46:00,
2013-10-23 11:51:00,74.4,41.0,30.03,West,281,5.0,6.0,30,0.00,,---,0.00,652.00,VWS V14.01,2013-10-23 16:51:00,
2013-10-23 11:56:00,74.6,41.2,30.03,WSW,254,8.0,8.0,30,0.00,,---,0.00,657.00,VWS V14.01,2013-10-23 16:56:00,
2013-10-23 12:01:00,74.9,40.5,30.03,West,273,11.0,11.0,29,0.00,,---,0.00,664.00,VWS V14.01,2013-10-23 17:01:00,
2013-10-23 12:06:00,75.3,40.9,30.03,WNW,283,9.0,10.0,29,0.00,,---,0.00,670.00,VWS V14.01,2013-10-23 17:06:00,
2013-10-23 12:11:00,75.7,40.3,30.02,West,267,7.0,10.0,28,0.00,,---,0.00,675.00,VWS V14.01,2013-10-23 17:11:00,
2013-10-23 12:16:00,76.3,39.9,30.02,WNW,282,8.0,10.0,27,0.00,,---,0.00,682.00,VWS V14.01,2013-10-23 17:16:00,
2013-10-23 12:21:00,76.7,39.3,30.02,WSW,251,8.0,10.0,26,0.00,,---,0.00,687.00,VWS V14.01,2013-10-23 17:21:00,
2013-10-23 12:26:00,77.3,38.8,30.02,WNW,289,13.0,13.0,25,0.00,,---,0.00,696.00,VWS V14.01,2013-10-23 17:26:00,
2013-10-23 12:31:00,77.7,39.1,30.02,SW,233,7.0,7.0,25,0.00,,---,0.00,701.00,VWS V14.01,2013-10-23 17:31:00,
2013-10-23 12:36:00,78.2,39.5,30.01,SW,229,12.0,12.0,25,0.00,,---,0.00,705.00,VWS V14.01,2013-10-23 17:36:00,
2013-10-23 12:41:00,78.5,38.7,30.01,WSW,242,13.0,13.0,24,0.00,,---,0.00,710.00,VWS V14.01,2013-10-23 17:41:00,
2013-10-23 12:46:00,78.8,39.0,30.01,West,263,13.0,15.0,24,0.00,,---,0.00,715.00,VWS V14.01,2013-10-23 17:46:00,
2013-10-23 12:51:00,79.6,38.6,30.01,SW,229,14.0,14.0,23,0.00,,---,0.00,721.00,VWS V14.01,2013-10-23 17:51:00,
2013-10-23 12:56:00,79.9,38.8,30.00,West,263,10.0,10.0,23,0.00,,---,0.00,721.00,VWS V14.01,2013-10-23 17:56:00,
2013-10-23 13:01:00,79.9,39.9,30.00,WSW,258,10.0,11.0,24,0.00,,---,0.00,726.00,VWS V14.01,2013-10-23 18:01:00,
2013-10-23 13:06:00,80.4,39.2,30.00,SW,229,8.0,9.0,23,0.00,,---,0.00,726.00,VWS V14.01,2013-10-23 18:06:00,
2013-10-23 13:11:00,80.7,39.5,30.00,WSW,243,8.0,10.0,23,0.00,,---,0.00,726.00,VWS V14.01,2013-10-23 18:11:00,
2013-10-23 13:16:00,81.1,38.7,30.00,WSW,243,5.0,6.0,22,0.00,,---,0.00,729.00,VWS V14.01,2013-10-23 18:16:00,
2013-10-23 13:21:00,81.4,38.9,29.99,SW,223,10.0,12.0,22,0.00,,---,0.00,729.00,VWS V14.01,2013-10-23 18:21:00,
2013-10-23 13:26:00,81.9,38.2,29.98,WSW,255,11.0,11.0,21,0.00,,---,0.00,729.00,VWS V14.01,2013-10-23 18:26:00,
2013-10-23 13:31:00,82.2,38.4,29.98,SW,219,5.0,5.0,21,0.00,,---,0.00,729.00,VWS V14.01,2013-10-23 18:31:00,
2013-10-23 13:36:00,82.9,39.0,29.98,WSW,244,12.0,13.0,21,0.00,,---,0.00,728.00,VWS V14.01,2013-10-23 18:36:00,
2013-10-23 13:41:00,83.2,38.0,29.97,WSW,248,10.0,18.0,20,0.00,,---,0.00,726.00,VWS V14.01,2013-10-23 18:41:00,
2013-10-23 13:46:00,83.0,37.8,29.97,SW,223,4.0,14.0,20,0.00,,---,0.00,722.00,VWS V14.01,2013-10-23 18:46:00,
2013-10-23 13:51:00,83.3,38.1,29.97,SW,226,10.0,20.0,20,0.00,,---,0.00,721.00,VWS V14.01,2013-10-23 18:51:00,
2013-10-23 13:56:00,83.6,38.3,29.97,SW,227,6.0,17.0,20,0.00,,---,0.00,715.00,VWS V14.01,2013-10-23 18:56:00,
2013-10-23 14:01:00,84.1,37.4,29.96,SW,223,15.0,16.0,19,0.00,,---,0.00,714.00,VWS V14.01,2013-10-23 19:01:00,
2013-10-23 14:06:00,84.4,37.7,29.96,SSW,205,15.0,23.0,19,0.00,,---,0.00,712.00,VWS V14.01,2013-10-23 19:06:00,
2013-10-23 14:11:00,84.5,37.8,29.96,SSW,213,15.0,19.0,19,0.00,,---,0.00,707.00,VWS V14.01,2013-10-23 19:11:00,
2013-10-23 14:16:00,84.5,37.8,29.96,South,175,22.0,27.0,19,0.00,,---,0.00,705.00,VWS V14.01,2013-10-23 19:16:00,
2013-10-23 14:21:00,84.7,37.9,29.95,SW,232,17.0,19.0,19,0.00,,---,0.00,698.00,VWS V14.01,2013-10-23 19:21:00,
2013-10-23 14:26:00,84.7,37.9,29.95,SW,234,15.0,17.0,19,0.00,,---,0.00,694.00,VWS V14.01,2013-10-23 19:26:00,
2013-10-23 14:31:00,85.1,36.9,29.94,SSW,208,12.0,16.0,18,0.00,,---,0.00,686.00,VWS V14.01,2013-10-23 19:31:00,
2013-10-23 14:36:00,85.0,36.8,29.94,SSW,192,15.0,15.0,18,0.00,,---,0.00,682.00,VWS V14.01,2013-10-23 19:36:00,
2013-10-23 14:41:00,85.0,36.8,29.94,SSE,166,10.0,10.0,18,0.00,,---,0.00,675.00,VWS V14.01,2013-10-23 19:41:00,
2013-10-23 14:46:00,85.6,37.3,29.94,SW,229,13.0,17.0,18,0.00,,---,0.00,668.00,VWS V14.01,2013-10-23 19:46:00,
2013-10-23 14:51:00,85.8,36.0,29.93,SSW,205,18.0,20.0,17,0.00,,---,0.00,663.00,VWS V14.01,2013-10-23 19:51:00,
2013-10-23 14:56:00,85.7,35.9,29.93,SW,228,15.0,19.0,17,0.00,,---,0.00,654.00,VWS V14.01,2013-10-23 19:56:00,
2013-10-23 15:01:00,85.7,35.9,29.93,SW,217,18.0,18.0,17,0.00,,---,0.00,647.00,VWS V14.01,2013-10-23 20:01:00,
2013-10-23 15:06:00,86.1,36.2,29.93,SW,236,17.0,17.0,17,0.00,,---,0.00,638.00,VWS V14.01,2013-10-23 20:06:00,
2013-10-23 15:11:00,86.0,36.2,29.93,WSW,237,10.0,14.0,17,0.00,,---,0.00,629.00,VWS V14.01,2013-10-23 20:11:00,
2013-10-23 15:16:00,85.8,36.0,29.92,SW,232,19.0,19.0,17,0.00,,---,0.00,619.00,VWS V14.01,2013-10-23 20:16:00,
2013-10-23 15:21:00,85.9,36.1,29.93,SSW,202,10.0,24.0,17,0.00,,---,0.00,610.00,VWS V14.01,2013-10-23 20:21:00,
2013-10-23 15:26:00,86.1,36.2,29.92,SSW,200,16.0,19.0,17,0.00,,---,0.00,601.00,VWS V14.01,2013-10-23 20:26:00,
2013-10-23 15:31:00,86.1,36.2,29.92,WSW,239,20.0,23.0,17,0.00,,---,0.00,591.00,VWS V14.01,2013-10-23 20:31:00,
2013-10-23 15:36:00,86.0,36.2,29.92,SW,225,10.0,17.0,17,0.00,,---,0.00,575.00,VWS V14.01,2013-10-23 20:36:00,
2013-10-23 15:41:00,86.3,34.9,29.92,SW,225,18.0,24.0,16,0.00,,---,0.00,563.00,VWS V14.01,2013-10-23 20:41:00,
2013-10-23 15:46:00,85.9,34.5,29.92,WSW,238,8.0,18.0,16,0.00,,---,0.00,554.00,VWS V14.01,2013-10-23 20:46:00,
2013-10-23 15:51:00,85.9,34.5,29.92,SSW,195,11.0,14.0,16,0.00,,---,0.00,541.00,VWS V14.01,2013-10-23 20:51:00,
2013-10-23 15:56:00,86.1,34.7,29.92,SW,218,16.0,22.0,16,0.00,,---,0.00,529.00,VWS V14.01,2013-10-23 20:56:00,
2013-10-23 16:01:00,85.9,34.5,29.92,WSW,240,15.0,22.0,16,0.00,,---,0.00,517.00,VWS V14.01,2013-10-23 21:01:00,
2013-10-23 16:06:00,85.8,34.5,29.92,SSW,205,7.0,14.0,16,0.00,,---,0.00,503.00,VWS V14.01,2013-10-23 21:06:00,
2013-10-23 16:11:00,85.9,34.5,29.92,SSW,210,19.0,22.0,16,0.00,,---,0.00,489.00,VWS V14.01,2013-10-23 21:11:00,
2013-10-23 16:16:00,85.9,32.9,29.92,SW,234,14.0,18.0,15,0.00,,---,0.00,475.00,VWS V14.01,2013-10-23 21:16:00,
2013-10-23 16:21:00,86.2,33.2,29.92,SW,235,9.0,20.0,15,0.00,,---,0.00,461.00,VWS V14.01,2013-10-23 21:21:00,
2013-10-23 16:26:00,86.2,33.2,29.92,SSW,205,7.0,13.0,15,0.00,,---,0.00,448.00,VWS V14.01,2013-10-23 21:26:00,
2013-10-23 16:31:00,86.1,33.1,29.92,WSW,252,14.0,20.0,15,0.00,,---,0.00,432.00,VWS V14.01,2013-10-23 21:31:00,
2013-10-23 16:36:00,86.1,34.7,29.92,SW,226,17.0,18.0,16,0.00,,---,0.00,418.00,VWS V14.01,2013-10-23 21:36:00,
2013-10-23 16:41:00,86.1,33.1,29.92,SW,223,10.0,15.0,15,0.00,,---,0.00,401.00,VWS V14.01,2013-10-23 21:41:00,
2013-10-23 16:46:00,86.1,33.1,29.92,SW,225,12.0,18.0,15,0.00,,---,0.00,387.00,VWS V14.01,2013-10-23 21:46:00,
2013-10-23 16:51:00,85.9,32.9,29.92,WSW,237,9.0,16.0,15,0.00,,---,0.00,371.00,VWS V14.01,2013-10-23 21:51:00,
2013-10-23 16:56:00,85.7,34.4,29.92,SW,219,10.0,16.0,16,0.00,,---,0.00,353.00,VWS V14.01,2013-10-23 21:56:00,
2013-10-23 17:01:00,85.5,34.2,29.92,SW,225,15.0,23.0,16,0.00,,---,0.00,339.00,VWS V14.01,2013-10-23 22:01:00,
2013-10-23 17:06:00,85.4,34.2,29.92,SSW,211,12.0,15.0,16,0.00,,---,0.00,323.00,VWS V14.01,2013-10-23 22:06:00,
2013-10-23 17:11:00,85.3,32.5,29.91,WSW,239,9.0,13.0,15,0.00,,---,0.00,308.00,VWS V14.01,2013-10-23 22:11:00,
2013-10-23 17:16:00,85.2,34.0,29.91,SSW,207,12.0,16.0,16,0.00,,---,0.00,290.00,VWS V14.01,2013-10-23 22:16:00,
2013-10-23 17:21:00,85.2,34.0,29.91,SW,236,9.0,11.0,16,0.00,,---,0.00,271.00,VWS V14.01,2013-10-23 22:21:00,
2013-10-23 17:26:00,85.0,32.2,29.91,SW,227,10.0,14.0,15,0.00,,---,0.00,251.00,VWS V14.01,2013-10-23 22:26:00,
2013-10-23 17:31:00,85.0,32.2,29.91,SW,221,6.0,14.0,15,0.00,,---,0.00,230.00,VWS V14.01,2013-10-23 22:31:00,
2013-10-23 17:36:00,84.8,33.7,29.91,SW,227,11.0,18.0,16,0.00,,---,0.00,211.00,VWS V14.01,2013-10-23 22:36:00,
2013-10-23 17:41:00,84.7,33.6,29.91,SSW,212,15.0,20.0,16,0.00,,---,0.00,190.00,VWS V14.01,2013-10-23 22:41:00,
2013-10-23 17:46:00,84.5,33.4,29.91,SW,227,9.0,15.0,16,0.00,,---,0.00,169.00,VWS V14.01,2013-10-23 22:46:00,
2013-10-23 17:51:00,84.2,33.2,29.91,SW,225,10.0,13.0,16,0.00,,---,0.00,148.00,VWS V14.01,2013-10-23 22:51:00,
2013-10-23 17:56:00,84.1,33.1,29.91,SW,224,10.0,13.0,16,0.00,,---,0.00,127.00,VWS V14.01,2013-10-23 22:56:00,
2013-10-23 18:01:00,83.8,34.4,29.91,SSW,212,8.0,10.0,17,0.00,,---,0.00,107.00,VWS V14.01,2013-10-23 23:01:00,
2013-10-23 18:06:00,83.6,34.2,29.91,SW,231,12.0,12.0,17,0.00,,---,0.00,88.00,VWS V14.01,2013-10-23 23:06:00,
2013-10-23 18:11:00,83.2,33.9,29.91,SW,219,11.0,14.0,17,0.00,,---,0.00,74.00,VWS V14.01,2013-10-23 23:11:00,
2013-10-23 18:16:00,83.0,33.7,29.91,SW,222,12.0,13.0,17,0.00,,---,0.00,58.00,VWS V14.01,2013-10-23 23:16:00,
2013-10-23 18:21:00,82.8,35.0,29.91,SSW,207,6.0,9.0,18,0.00,,---,0.00,42.00,VWS V14.01,2013-10-23 23:21:00,
2013-10-23 18:26:00,82.3,36.0,29.91,SW,234,4.0,5.0,19,0.00,,---,0.00,30.00,VWS V14.01,2013-10-23 23:26:00,
2013-10-23 18:30:00,81.9,35.6,29.91,SSW,213,4.0,6.0,19,0.00,,---,0.00,19.00,VWS V14.01,2013-10-23 23:30:00,
2013-10-23 18:35:00,81.4,35.2,29.91,SSW,207,4.0,5.0,19,0.00,,---,0.00,16.00,VWS V14.01,2013-10-23 23:35:00,
2013-10-23 18:40:00,80.9,34.8,29.92,SSW,200,2.0,4.0,19,0.00,,---,0.00,12.00,VWS V14.01,2013-10-23 23:40:00,
2013-10-23 18:45:00,80.3,34.3,29.92,SSW,205,3.0,4.0,19,0.00,,---,0.00,11.00,VWS V14.01,2013-10-23 23:45:00,
2013-10-23 18:50:00,79.6,35.0,29.92,SSW,197,3.0,3.0,20,0.00,,---,0.00,7.00,VWS V14.01,2013-10-23 23:50:00,
2013-10-23 18:55:00,79.1,34.6,29.92,SSW,207,3.0,3.0,20,0.00,,---,0.00,0.00,VWS V14.01,2013-10-23 23:55:00,
2013-10-23 19:00:00,78.5,35.4,29.92,South,184,5.0,5.0,21,0.00,,---,0.00,0.00,VWS V14.01,2013-10-24 00:00:00,
2013-10-23 19:05:00,77.8,34.8,29.92,South,180,2.0,4.0,21,0.00,,---,0.00,0.00,VWS V14.01,2013-10-24 00:05:00,
2013-10-23 19:10:00,76.9,34.0,29.92,SSW,211,2.0,5.0,21,0.00,,---,0.00,0.00,VWS V14.01,2013-10-24 00:10:00,
2013-10-23 19:15:00,76.2,34.6,29.92,South,181,3.0,4.0,22,0.00,,---,0.00,0.00,VWS V14.01,2013-10-24 00:15:00,
2013-10-23 19:20:00,75.6,35.2,29.92,SSW,192,3.0,3.0,23,0.00,,---,0.00,0.00,VWS V14.01,2013-10-24 00:20:00,
2013-10-23 19:25:00,75.0,34.7,29.93,South,191,2.0,4.0,23,0.00,,---,0.00,0.00,VWS V14.01,2013-10-24 00:25:00,
2013-10-23 19:30:00,74.4,35.3,29.93,South,173,4.0,4.0,24,0.00,,---,0.00,0.00,VWS V14.01,2013-10-24 00:30:00,
2013-10-23 19:35:00,73.8,34.8,29.93,SSW,201,5.0,7.0,24,0.00,,---,0.00,0.00,VWS V14.01,2013-10-24 00:35:00,
2013-10-23 19:40:00,73.3,34.4,29.93,South,184,2.0,3.0,24,0.00,,---,0.00,0.00,VWS V14.01,2013-10-24 00:40:00,
2013-10-23 19:45:00,72.8,35.0,29.93,South,178,2.0,4.0,25,0.00,,---,0.00,0.00,VWS V14.01,2013-10-24 00:45:00,
2013-10-23 19:50:00,72.4,34.6,29.93,South,184,5.0,5.0,25,0.00,,---,0.00,0.00,VWS V14.01,2013-10-24 00:50:00,
2013-10-23 19:55:00,72.1,35.4,29.93,SSW,194,4.0,5.0,26,0.00,,---,0.00,0.00,VWS V14.01,2013-10-24 00:55:00,
2013-10-23 20:00:00,71.7,35.0,29.93,South,185,4.0,7.0,26,0.00,,---,0.00,0.00,VWS V14.01,2013-10-24 01:00:00,
2013-10-23 20:05:00,71.3,34.7,29.93,South,172,3.0,4.0,26,0.00,,---,0.00,0.00,VWS V14.01,2013-10-24 01:05:00,
2013-10-23 20:10:00,70.8,35.2,29.93,South,186,5.0,5.0,27,0.00,,---,0.00,0.00,VWS V14.01,2013-10-24 01:10:00,
2013-10-23 20:15:00,70.4,35.8,29.93,SSE,163,6.0,6.0,28,0.00,,---,0.00,0.00,VWS V14.01,2013-10-24 01:15:00,
2013-10-23 20:20:00,70.1,35.5,29.93,South,171,4.0,4.0,28,0.00,,---,0.00,0.00,VWS V14.01,2013-10-24 01:20:00,
2013-10-23 20:25:00,69.9,35.3,29.94,South,172,3.0,5.0,28,0.00,,---,0.00,0.00,VWS V14.01,2013-10-24 01:25:00,
2013-10-23 20:30:00,69.6,36.0,29.94,South,184,4.0,5.0,29,0.00,,---,0.00,0.00,VWS V14.01,2013-10-24 01:30:00,
2013-10-23 20:35:00,69.3,35.7,29.94,SSE,168,3.0,5.0,29,0.00,,---,0.00,0.00,VWS V14.01,2013-10-24 01:35:00,
2013-10-23 20:40:00,69.0,36.3,29.94,South,184,4.0,5.0,30,0.00,,---,0.00,0.00,VWS V14.01,2013-10-24 01:40:00,
2013-10-23 20:45:00,68.8,36.1,29.94,South,185,2.0,4.0,30,0.00,,---,0.00,0.00,VWS V14.01,2013-10-24 01:45:00,
2013-10-23 20:50:00,68.5,35.9,29.94,South,180,3.0,3.0,30,0.00,,---,0.00,0.00,VWS V14.01,2013-10-24 01:50:00,
2013-10-23 20:55:00,68.2,35.6,29.94,SSW,209,3.0,4.0,30,0.00,,---,0.00,0.00,VWS V14.01,2013-10-24 01:55:00,
2013-10-23 21:00:00,67.9,36.2,29.94,SSW,192,4.0,5.0,31,0.00,,---,0.00,0.00,VWS V14.01,2013-10-24 02:00:00,
2013-10-23 21:05:00,67.6,35.9,29.94,South,171,4.0,4.0,31,0.00,,---,0.00,0.00,VWS V14.01,2013-10-24 02:05:00,
2013-10-23 21:10:00,67.4,35.7,29.94,SSW,210,5.0,5.0,31,0.00,,---,0.00,0.00,VWS V14.01,2013-10-24 02:10:00,
2013-10-23 21:15:00,67.2,35.6,29.94,SW,233,4.0,5.0,31,0.00,,---,0.00,0.00,VWS V14.01,2013-10-24 02:15:00,
2013-10-23 21:20:00,67.1,36.3,29.94,South,190,2.0,5.0,32,0.00,,---,0.00,0.00,VWS V14.01,2013-10-24 02:20:00,
2013-10-23 21:25:00,66.8,36.0,29.94,SSW,199,2.0,3.0,32,0.00,,---,0.00,0.00,VWS V14.01,2013-10-24 02:25:00,
2013-10-23 21:30:00,66.6,35.8,29.94,SW,223,5.0,5.0,32,0.00,,---,0.00,0.00,VWS V14.01,2013-10-24 02:30:00,
2013-10-23 21:35:00,66.4,35.7,29.94,SSW,208,3.0,3.0,32,0.00,,---,0.00,0.00,VWS V14.01,2013-10-24 02:35:00,
2013-10-23 21:40:00,66.3,35.6,29.94,South,173,4.0,6.0,32,0.00,,---,0.00,0.00,VWS V14.01,2013-10-24 02:40:00,
2013-10-23 21:45:00,66.3,35.6,29.94,SSW,194,5.0,7.0,32,0.00,,---,0.00,0.00,VWS V14.01,2013-10-24 02:45:00,
2013-10-23 21:50:00,66.3,35.6,29.94,SSW,205,5.0,5.0,32,0.00,,---,0.00,0.00,VWS V14.01,2013-10-24 02:50:00,
2013-10-23 21:55:00,66.4,35.7,29.94,South,179,4.0,7.0,32,0.00,,---,0.00,0.00,VWS V14.01,2013-10-24 02:55:00,
2013-10-23 22:00:00,66.3,36.4,29.94,SSW,205,5.0,5.0,33,0.00,,---,0.00,0.00,VWS V14.01,2013-10-24 03:00:00,
2013-10-23 22:05:00,66.2,36.3,29.94,SSW,206,3.0,4.0,33,0.00,,---,0.00,0.00,VWS V14.01,2013-10-24 03:05:00,
2013-10-23 22:10:00,66.0,36.1,29.94,SSW,196,3.0,3.0,33,0.00,,---,0.00,0.00,VWS V14.01,2013-10-24 03:10:00,
2013-10-23 22:15:00,65.9,36.0,29.95,SSW,206,3.0,4.0,33,0.00,,---,0.00,0.00,VWS V14.01,2013-10-24 03:15:00,
2013-10-23 22:20:00,65.6,36.5,29.95,SW,223,3.0,3.0,34,0.00,,---,0.00,0.00,VWS V14.01,2013-10-24 03:20:00,
2013-10-23 22:25:00,65.2,36.9,29.95,SW,214,4.0,4.0,35,0.00,,---,0.00,0.00,VWS V14.01,2013-10-24 03:25:00,
2013-10-23 22:30:00,64.7,36.4,29.95,SW,215,4.0,4.0,35,0.00,,---,0.00,0.00,VWS V14.01,2013-10-24 03:30:00,
2013-10-23 22:35:00,63.8,36.4,29.95,SW,216,6.0,7.0,36,0.00,,---,0.00,0.00,VWS V14.01,2013-10-24 03:35:00,
2013-10-23 22:40:00,63.0,36.3,29.95,SSW,207,4.0,5.0,37,0.00,,---,0.00,0.00,VWS V14.01,2013-10-24 03:40:00,
2013-10-23 22:45:00,62.4,36.5,29.95,SSW,213,3.0,4.0,38,0.00,,---,0.00,0.00,VWS V14.01,2013-10-24 03:45:00,
2013-10-23 22:50:00,61.9,36.7,29.96,SSW,213,6.0,6.0,39,0.00,,---,0.00,0.00,VWS V14.01,2013-10-24 03:50:00,
2013-10-23 22:55:00,61.4,36.2,29.96,SW,215,6.0,6.0,39,0.00,,---,0.00,0.00,VWS V14.01,2013-10-24 03:55:00,
2013-10-23 23:00:00,61.0,35.9,29.96,SSW,212,3.0,5.0,39,0.00,,---,0.00,0.00,VWS V14.01,2013-10-24 04:00:00,
2013-10-23 23:01:00,61.0,35.9,29.96,SW,219,5.0,5.0,39,0.00,,---,0.00,0.00,VWS V14.01,2013-10-24 04:01:00,
2013-10-23 23:06:00,60.5,36.1,29.96,SSW,213,5.0,6.0,40,0.00,,---,0.00,0.00,VWS V14.01,2013-10-24 04:06:00,
2013-10-23 23:11:00,60.2,35.8,29.96,SSW,205,5.0,5.0,40,0.00,,---,0.00,0.00,VWS V14.01,2013-10-24 04:11:00,
2013-10-23 23:16:00,59.9,36.2,29.96,SSW,196,3.0,4.0,41,0.00,,---,0.00,0.00,VWS V14.01,2013-10-24 04:16:00,
2013-10-23 23:21:00,59.7,36.0,29.96,South,190,2.0,4.0,41,0.00,,---,0.00,0.00,VWS V14.01,2013-10-24 04:21:00,
2013-10-23 23:26:00,59.5,36.4,29.96,SSW,194,2.0,3.0,42,0.00,,---,0.00,0.00,VWS V14.01,2013-10-24 04:26:00,
2013-10-23 23:31:00,59.3,36.2,29.97,SSW,209,0.0,2.0,42,0.00,,---,0.00,0.00,VWS V14.01,2013-10-24 04:31:00,
2013-10-23 23:36:00,59.0,36.6,29.99,North,355,6.0,9.0,43,0.00,,---,0.00,0.00,VWS V14.01,2013-10-24 04:36:00,
2013-10-23 23:41:00,58.3,35.9,29.99,WNW,298,5.0,8.0,43,0.00,,---,0.00,0.00,VWS V14.01,2013-10-24 04:41:00,
2013-10-23 23:46:00,58.4,36.0,29.99,South,169,2.0,2.0,43,0.00,,---,0.00,0.00,VWS V14.01,2013-10-24 04:46:00,
2013-10-23 23:51:00,58.7,36.3,29.99,NNE,26,3.0,3.0,43,0.00,,---,0.00,0.00,VWS V14.01,2013-10-24 04:51:00,
2013-10-23 23:56:00,59.4,36.3,30.00,NW,323,3.0,5.0,42,0.00,,---,0.00,0.00,VWS V14.01,2013-10-24 04:56:00,